sensor_id;sensor_type;location;lat;lon;timestamp;pressure;altitude;pressure_sealevel;temperature;humidity
7157;BME280;3620;49.862;8.758;2023-01-30T00:01:41;99867.91;;;1.18;96.08
7157;BME280;3620;49.862;8.758;2023-01-30T00:04:09;99870.56;;;1.28;96.39
7157;BME280;3620;49.862;8.758;2023-01-30T00:06:38;99854.16;;;1.31;96.60
7157;BME280;3620;49.862;8.758;2023-01-30T00:09:05;99861.91;;;1.29;96.91
7157;BME280;3620;49.862;8.758;2023-01-30T00:11:31;99846.38;;;1.43;97.04
7157;BME280;3620;49.862;8.758;2023-01-30T00:13:58;99845.50;;;1.45;96.48
7157;BME280;3620;49.862;8.758;2023-01-30T00:16:25;99834.31;;;1.46;96.24
7157;BME280;3620;49.862;8.758;2023-01-30T00:18:52;99820.47;;;1.51;96.33
7157;BME280;3620;49.862;8.758;2023-01-30T00:21:18;99820.47;;;1.51;98.14
7157;BME280;3620;49.862;8.758;2023-01-30T00:23:46;99840.34;;;1.45;97.33
7157;BME280;3620;49.862;8.758;2023-01-30T00:26:12;99845.53;;;1.58;96.61
7157;BME280;3620;49.862;8.758;2023-01-30T00:28:39;99838.59;;;1.43;96.65
7157;BME280;3620;49.862;8.758;2023-01-30T00:31:06;99850.72;;;1.44;96.54
7157;BME280;3620;49.862;8.758;2023-01-30T00:33:35;99829.97;;;1.52;95.87
7157;BME280;3620;49.862;8.758;2023-01-30T00:36:02;99806.66;;;1.48;96.04
7157;BME280;3620;49.862;8.758;2023-01-30T00:38:28;99801.44;;;1.45;96.29
7157;BME280;3620;49.862;8.758;2023-01-30T00:40:56;99784.16;;;1.44;95.89
7157;BME280;3620;49.862;8.758;2023-01-30T00:43:23;99778.13;;;1.50;96.23
7157;BME280;3620;49.862;8.758;2023-01-30T00:46:12;99765.16;;;1.33;96.71
7157;BME280;3620;49.862;8.758;2023-01-30T00:48:57;99745.31;;;1.40;96.98
7157;BME280;3620;49.862;8.758;2023-01-30T00:51:24;99740.97;;;1.45;96.73
7157;BME280;3620;49.862;8.758;2023-01-30T00:53:50;99734.06;;;1.48;97.02
7157;BME280;3620;49.862;8.758;2023-01-30T00:56:18;99724.56;;;1.51;97.18
7157;BME280;3620;49.862;8.758;2023-01-30T00:58:45;99739.25;;;1.58;97.22
7157;BME280;3620;49.862;8.758;2023-01-30T01:01:11;99753.06;;;1.60;97.07
7157;BME280;3620;49.862;8.758;2023-01-30T01:03:38;99741.81;;;1.56;97.32
7157;BME280;3620;49.862;8.758;2023-01-30T01:06:05;99723.69;;;1.56;98.03
7157;BME280;3620;49.862;8.758;2023-01-30T01:08:31;99734.06;;;1.45;99.31
7157;BME280;3620;49.862;8.758;2023-01-30T01:10:58;99730.56;;;1.60;99.36
7157;BME280;3620;49.862;8.758;2023-01-30T01:13:26;99728.00;;;1.57;99.37
7157;BME280;3620;49.862;8.758;2023-01-30T01:15:52;99714.19;;;1.54;99.13
7157;BME280;3620;49.862;8.758;2023-01-30T01:18:19;99720.22;;;1.57;98.93
7157;BME280;3620;49.862;8.758;2023-01-30T01:20:45;99721.97;;;1.60;98.95
7157;BME280;3620;49.862;8.758;2023-01-30T01:23:12;99730.63;;;1.46;99.22
7157;BME280;3620;49.862;8.758;2023-01-30T01:25:39;99739.22;;;1.61;99.18
7157;BME280;3620;49.862;8.758;2023-01-30T01:28:05;99758.25;;;1.57;98.99
7157;BME280;3620;49.862;8.758;2023-01-30T01:30:33;99758.25;;;1.60;98.47
7157;BME280;3620;49.862;8.758;2023-01-30T01:33:00;99756.53;;;1.53;98.25
7157;BME280;3620;49.862;8.758;2023-01-30T01:35:26;99739.22;;;1.52;98.82
7157;BME280;3620;49.862;8.758;2023-01-30T01:37:53;99710.75;;;1.45;100.00
7157;BME280;3620;49.862;8.758;2023-01-30T01:40:21;99703.81;;;1.44;100.00
7157;BME280;3620;49.862;8.758;2023-01-30T01:43:14;99706.44;;;1.41;100.00
7157;BME280;3620;49.862;8.758;2023-01-30T01:45:42;99712.47;;;1.31;100.00
7157;BME280;3620;49.862;8.758;2023-01-30T01:48:11;99714.22;;;1.29;100.00
7157;BME280;3620;49.862;8.758;2023-01-30T01:50:43;99704.69;;;1.40;100.00
7157;BME280;3620;49.862;8.758;2023-01-30T01:53:13;99703.84;;;1.35;100.00
7157;BME280;3620;49.862;8.758;2023-01-30T01:55:41;99710.75;;;1.33;100.00
7157;BME280;3620;49.862;8.758;2023-01-30T01:58:11;99701.25;;;1.32;100.00
7157;BME280;3620;49.862;8.758;2023-01-30T02:00:41;99717.66;;;1.34;100.00
7157;BME280;3620;49.862;8.758;2023-01-30T02:03:11;99716.81;;;1.35;100.00
7157;BME280;3620;49.862;8.758;2023-01-30T02:05:41;99717.66;;;1.48;100.00
7157;BME280;3620;49.862;8.758;2023-01-30T02:08:11;99705.56;;;1.53;100.00
7157;BME280;3620;49.862;8.758;2023-01-30T02:10:44;99692.63;;;1.30;100.00
7157;BME280;3620;49.862;8.758;2023-01-30T02:13:14;99690.03;;;1.36;100.00
7157;BME280;3620;49.862;8.758;2023-01-30T02:15:42;99685.69;;;1.41;100.00
7157;BME280;3620;49.862;8.758;2023-01-30T02:18:09;99683.97;;;1.40;100.00
7157;BME280;3620;49.862;8.758;2023-01-30T02:20:52;99676.19;;;1.39;100.00
7157;BME280;3620;49.862;8.758;2023-01-30T02:23:41;99673.59;;;1.40;100.00
7157;BME280;3620;49.862;8.758;2023-01-30T02:26:39;99662.34;;;1.64;100.00
7157;BME280;3620;49.862;8.758;2023-01-30T02:29:29;99659.72;;;1.58;99.82
7157;BME280;3620;49.862;8.758;2023-01-30T02:32:06;99659.78;;;1.51;100.00
7157;BME280;3620;49.862;8.758;2023-01-30T02:34:40;99671.88;;;1.39;100.00
7157;BME280;3620;49.862;8.758;2023-01-30T02:37:19;99677.06;;;1.39;100.00
7157;BME280;3620;49.862;8.758;2023-01-30T02:40:01;99680.50;;;1.44;100.00
7157;BME280;3620;49.862;8.758;2023-01-30T02:42:36;99673.59;;;1.31;100.00
7157;BME280;3620;49.862;8.758;2023-01-30T02:45:08;99669.25;;;1.47;100.00
7157;BME280;3620;49.862;8.758;2023-01-30T02:47:39;99663.25;;;1.43;100.00
7157;BME280;3620;49.862;8.758;2023-01-30T02:50:13;99668.41;;;1.43;100.00
7157;BME280;3620;49.862;8.758;2023-01-30T02:52:42;99671.91;;;1.30;100.00
7157;BME280;3620;49.862;8.758;2023-01-30T02:55:16;99670.16;;;1.38;100.00
7157;BME280;3620;49.862;8.758;2023-01-30T02:57:43;99670.19;;;1.35;100.00
7157;BME280;3620;49.862;8.758;2023-01-30T03:00:12;99662.38;;;1.29;100.00
7157;BME280;3620;49.862;8.758;2023-01-30T03:02:51;99653.78;;;1.29;100.00
7157;BME280;3620;49.862;8.758;2023-01-30T03:05:38;99652.88;;;1.34;100.00
7157;BME280;3620;49.862;8.758;2023-01-30T03:08:19;99648.59;;;1.24;100.00
7157;BME280;3620;49.862;8.758;2023-01-30T03:10:51;99649.47;;;1.26;100.00
7157;BME280;3620;49.862;8.758;2023-01-30T03:13:26;99642.50;;;1.40;100.00
7157;BME280;3620;49.862;8.758;2023-01-30T03:15:59;99645.94;;;1.42;100.00
7157;BME280;3620;49.862;8.758;2023-01-30T03:18:29;99647.69;;;1.40;100.00
7157;BME280;3620;49.862;8.758;2023-01-30T03:21:02;99655.47;;;1.40;100.00
7157;BME280;3620;49.862;8.758;2023-01-30T03:23:29;99639.94;;;1.42;100.00
7157;BME280;3620;49.862;8.758;2023-01-30T03:25:56;99662.38;;;1.38;100.00
7157;BME280;3620;49.862;8.758;2023-01-30T03:28:23;99664.94;;;1.44;100.00
7157;BME280;3620;49.862;8.758;2023-01-30T03:30:49;99648.53;;;1.42;100.00
7157;BME280;3620;49.862;8.758;2023-01-30T03:33:16;99649.41;;;1.38;100.00
7157;BME280;3620;49.862;8.758;2023-01-30T03:35:44;99650.28;;;1.51;100.00
7157;BME280;3620;49.862;8.758;2023-01-30T03:38:10;99652.88;;;1.43;100.00
7157;BME280;3620;49.862;8.758;2023-01-30T03:40:38;99640.75;;;1.47;100.00
7157;BME280;3620;49.862;8.758;2023-01-30T03:43:04;99642.50;;;1.46;100.00
7157;BME280;3620;49.862;8.758;2023-01-30T03:45:32;99654.56;;;1.44;100.00
7157;BME280;3620;49.862;8.758;2023-01-30T03:47:58;99642.50;;;1.40;100.00
7157;BME280;3620;49.862;8.758;2023-01-30T03:50:25;99639.06;;;1.38;100.00
7157;BME280;3620;49.862;8.758;2023-01-30T03:52:53;99639.91;;;1.39;100.00
7157;BME280;3620;49.862;8.758;2023-01-30T03:55:20;99626.94;;;1.49;100.00
7157;BME280;3620;49.862;8.758;2023-01-30T03:57:47;99633.00;;;1.48;100.00
7157;BME280;3620;49.862;8.758;2023-01-30T04:00:14;99607.94;;;1.47;100.00
7157;BME280;3620;49.862;8.758;2023-01-30T04:02:41;99600.13;;;1.54;100.00
7157;BME280;3620;49.862;8.758;2023-01-30T04:05:07;99597.56;;;1.47;100.00
7157;BME280;3620;49.862;8.758;2023-01-30T04:07:34;99600.13;;;1.55;100.00
7157;BME280;3620;49.862;8.758;2023-01-30T04:10:02;99604.44;;;1.52;100.00
7157;BME280;3620;49.862;8.758;2023-01-30T04:12:29;99578.56;;;1.42;100.00
7157;BME280;3620;49.862;8.758;2023-01-30T04:14:55;99588.94;;;1.42;100.00
7157;BME280;3620;49.862;8.758;2023-01-30T04:17:22;99588.91;;;1.52;100.00
7157;BME280;3620;49.862;8.758;2023-01-30T04:19:49;99585.47;;;1.53;100.00
7157;BME280;3620;49.862;8.758;2023-01-30T04:22:15;99581.16;;;1.42;100.00
7157;BME280;3620;49.862;8.758;2023-01-30T04:24:42;99581.97;;;1.54;100.00
7157;BME280;3620;49.862;8.758;2023-01-30T04:27:09;99586.31;;;1.52;100.00
7157;BME280;3620;49.862;8.758;2023-01-30T04:29:36;99576.81;;;1.54;100.00
7157;BME280;3620;49.862;8.758;2023-01-30T04:32:03;99574.19;;;1.64;100.00
7157;BME280;3620;49.862;8.758;2023-01-30T04:34:29;99556.03;;;1.66;100.00
7157;BME280;3620;49.862;8.758;2023-01-30T04:36:56;99560.28;;;1.76;100.00
7157;BME280;3620;49.862;8.758;2023-01-30T04:39:22;99543.00;;;1.76;100.00
7157;BME280;3620;49.862;8.758;2023-01-30T04:41:50;99561.09;;;1.85;100.00
7157;BME280;3620;49.862;8.758;2023-01-30T04:44:18;99555.97;;;1.72;100.00
7157;BME280;3620;49.862;8.758;2023-01-30T04:46:45;99558.59;;;1.73;100.00
7157;BME280;3620;49.862;8.758;2023-01-30T04:49:11;99559.41;;;1.77;100.00
7157;BME280;3620;49.862;8.758;2023-01-30T04:51:38;99541.28;;;1.72;100.00
7157;BME280;3620;49.862;8.758;2023-01-30T04:54:05;99519.72;;;1.66;100.00
7157;BME280;3620;49.862;8.758;2023-01-30T04:56:32;99530.03;;;1.78;100.00
7157;BME280;3620;49.862;8.758;2023-01-30T04:58:58;99499.00;;;1.66;100.00
7157;BME280;3620;49.862;8.758;2023-01-30T05:01:29;99511.97;;;1.63;100.00
7157;BME280;3620;49.862;8.758;2023-01-30T05:03:57;99502.38;;;1.74;100.00
7157;BME280;3620;49.862;8.758;2023-01-30T05:06:24;99479.94;;;1.73;100.00
7157;BME280;3620;49.862;8.758;2023-01-30T05:08:51;99486.88;;;1.71;100.00
7157;BME280;3620;49.862;8.758;2023-01-30T05:11:19;99476.50;;;1.65;100.00
7157;BME280;3620;49.862;8.758;2023-01-30T05:13:45;99483.50;;;1.52;100.00
7157;BME280;3620;49.862;8.758;2023-01-30T05:16:13;99482.59;;;1.61;100.00
7157;BME280;3620;49.862;8.758;2023-01-30T05:18:42;99491.28;;;1.49;100.00
7157;BME280;3620;49.862;8.758;2023-01-30T05:21:10;99485.22;;;1.52;100.00
7157;BME280;3620;49.862;8.758;2023-01-30T05:23:38;99477.44;;;1.59;100.00
7157;BME280;3620;49.862;8.758;2023-01-30T05:26:05;99482.59;;;1.62;100.00
7157;BME280;3620;49.862;8.758;2023-01-30T05:28:32;99481.78;;;1.49;100.00
7157;BME280;3620;49.862;8.758;2023-01-30T05:31:00;99480.00;;;1.61;100.00
7157;BME280;3620;49.862;8.758;2023-01-30T05:33:27;99485.19;;;1.64;100.00
7157;BME280;3620;49.862;8.758;2023-01-30T05:35:55;99477.44;;;1.56;100.00
7157;BME280;3620;49.862;8.758;2023-01-30T05:38:22;99486.03;;;1.69;100.00
7157;BME280;3620;49.862;8.758;2023-01-30T05:40:57;99486.94;;;1.59;100.00
7157;BME280;3620;49.862;8.758;2023-01-30T05:43:23;99501.59;;;1.61;100.00
7157;BME280;3620;49.862;8.758;2023-01-30T05:45:51;99481.75;;;1.54;100.00
7157;BME280;3620;49.862;8.758;2023-01-30T05:48:18;99480.88;;;1.60;100.00
7157;BME280;3620;49.862;8.758;2023-01-30T05:50:45;99478.22;;;1.67;100.00
7157;BME280;3620;49.862;8.758;2023-01-30T05:53:13;99461.81;;;1.68;100.00
7157;BME280;3620;49.862;8.758;2023-01-30T05:55:39;99449.75;;;1.63;100.00
7157;BME280;3620;49.862;8.758;2023-01-30T05:58:08;99442.81;;;1.65;100.00
7157;BME280;3620;49.862;8.758;2023-01-30T06:00:34;99446.25;;;1.68;100.00
7157;BME280;3620;49.862;8.758;2023-01-30T06:03:01;99430.69;;;1.73;100.00
7157;BME280;3620;49.862;8.758;2023-01-30T06:05:27;99426.41;;;1.69;100.00
7157;BME280;3620;49.862;8.758;2023-01-30T06:07:54;99429.84;;;1.68;100.00
7157;BME280;3620;49.862;8.758;2023-01-30T06:10:22;99422.94;;;1.68;100.00
7157;BME280;3620;49.862;8.758;2023-01-30T06:12:48;99430.59;;;1.86;100.00
7157;BME280;3620;49.862;8.758;2023-01-30T06:15:15;99439.81;;;2.16;100.00
7157;BME280;3620;49.862;8.758;2023-01-30T06:17:42;99446.16;;;1.80;100.00
7157;BME280;3620;49.862;8.758;2023-01-30T06:20:09;99426.34;;;1.78;100.00
7157;BME280;3620;49.862;8.758;2023-01-30T06:22:36;99450.47;;;1.86;100.00
7157;BME280;3620;49.862;8.758;2023-01-30T06:25:04;99441.00;;;1.82;100.00
7157;BME280;3620;49.862;8.758;2023-01-30T06:27:32;99453.03;;;1.87;100.00
7157;BME280;3620;49.862;8.758;2023-01-30T06:29:58;99446.16;;;1.86;100.00
7157;BME280;3620;49.862;8.758;2023-01-30T06:32:25;99450.47;;;1.83;100.00
7157;BME280;3620;49.862;8.758;2023-01-30T06:34:52;99452.19;;;1.85;100.00
7157;BME280;3620;49.862;8.758;2023-01-30T06:37:18;99447.84;;;1.89;100.00
7157;BME280;3620;49.862;8.758;2023-01-30T06:39:44;99465.97;;;1.92;100.00
7157;BME280;3620;49.862;8.758;2023-01-30T06:42:11;99452.16;;;1.90;100.00
7157;BME280;3620;49.862;8.758;2023-01-30T06:44:39;99448.69;;;1.91;100.00
7157;BME280;3620;49.862;8.758;2023-01-30T06:47:05;99467.75;;;1.85;100.00
7157;BME280;3620;49.862;8.758;2023-01-30T06:49:32;99459.13;;;1.82;100.00
7157;BME280;3620;49.862;8.758;2023-01-30T06:51:58;99451.38;;;1.79;100.00
7157;BME280;3620;49.862;8.758;2023-01-30T06:54:25;99457.34;;;1.93;100.00
7157;BME280;3620;49.862;8.758;2023-01-30T06:56:52;99438.28;;;1.97;100.00
7157;BME280;3620;49.862;8.758;2023-01-30T06:59:19;99446.94;;;1.91;100.00
7157;BME280;3620;49.862;8.758;2023-01-30T07:01:47;99468.63;;;1.86;100.00
7157;BME280;3620;49.862;8.758;2023-01-30T07:04:13;99464.28;;;1.88;100.00
7157;BME280;3620;49.862;8.758;2023-01-30T07:06:39;99452.09;;;1.96;100.00
7157;BME280;3620;49.862;8.758;2023-01-30T07:09:06;99474.63;;;1.91;100.00
7157;BME280;3620;49.862;8.758;2023-01-30T07:11:32;99459.00;;;2.00;100.00
7157;BME280;3620;49.862;8.758;2023-01-30T07:13:59;99445.22;;;1.95;100.00
7157;BME280;3620;49.862;8.758;2023-01-30T07:16:26;99440.88;;;1.97;100.00
7157;BME280;3620;49.862;8.758;2023-01-30T07:18:55;99452.09;;;1.96;100.00
7157;BME280;3620;49.862;8.758;2023-01-30T07:21:22;99463.31;;;2.01;100.00
7157;BME280;3620;49.862;8.758;2023-01-30T07:23:49;99472.81;;;2.02;100.00
7157;BME280;3620;49.862;8.758;2023-01-30T07:26:15;99464.22;;;1.97;100.00
7157;BME280;3620;49.862;8.758;2023-01-30T07:28:42;99507.34;;;2.07;100.00
7157;BME280;3620;49.862;8.758;2023-01-30T07:31:09;99509.09;;;2.05;100.00
7157;BME280;3620;49.862;8.758;2023-01-30T07:33:35;99515.19;;;1.98;100.00
7157;BME280;3620;49.862;8.758;2023-01-30T07:36:04;99483.16;;;2.08;100.00
7157;BME280;3620;49.862;8.758;2023-01-30T07:38:30;99473.59;;;2.13;100.00
7157;BME280;3620;49.862;8.758;2023-01-30T07:40:57;99477.06;;;2.09;100.00
7157;BME280;3620;49.862;8.758;2023-01-30T07:43:23;99487.41;;;2.13;100.00
7157;BME280;3620;49.862;8.758;2023-01-30T07:45:50;99481.41;;;2.10;100.00
7157;BME280;3620;49.862;8.758;2023-01-30T07:48:18;99474.44;;;2.15;100.00
7157;BME280;3620;49.862;8.758;2023-01-30T07:50:45;99483.84;;;2.28;100.00
7157;BME280;3620;49.862;8.758;2023-01-30T07:53:14;99490.06;;;2.07;100.00
7157;BME280;3620;49.862;8.758;2023-01-30T07:55:42;99510.78;;;2.12;100.00
7157;BME280;3620;49.862;8.758;2023-01-30T07:58:11;99506.44;;;2.14;100.00
7157;BME280;3620;49.862;8.758;2023-01-30T08:00:37;99503.91;;;2.11;100.00
7157;BME280;3620;49.862;8.758;2023-01-30T08:03:04;99499.53;;;2.11;100.00
7157;BME280;3620;49.862;8.758;2023-01-30T08:05:31;99505.66;;;2.06;100.00
7157;BME280;3620;49.862;8.758;2023-01-30T08:07:57;99510.78;;;2.12;100.00
7157;BME280;3620;49.862;8.758;2023-01-30T08:10:26;99484.00;;;2.10;100.00
7157;BME280;3620;49.862;8.758;2023-01-30T08:12:53;99497.84;;;2.10;100.00
7157;BME280;3620;49.862;8.758;2023-01-30T08:15:19;99504.72;;;2.14;100.00
7157;BME280;3620;49.862;8.758;2023-01-30T08:17:52;99493.41;;;2.20;100.00
7157;BME280;3620;49.862;8.758;2023-01-30T08:20:18;99479.63;;;2.13;100.00
7157;BME280;3620;49.862;8.758;2023-01-30T08:22:45;99462.34;;;2.14;100.00
7157;BME280;3620;49.862;8.758;2023-01-30T08:25:11;99470.13;;;2.15;100.00
7157;BME280;3620;49.862;8.758;2023-01-30T08:27:39;99473.63;;;2.08;100.00
7157;BME280;3620;49.862;8.758;2023-01-30T08:30:07;99472.78;;;2.08;100.00
7157;BME280;3620;49.862;8.758;2023-01-30T08:32:34;99488.31;;;2.11;100.00
7157;BME280;3620;49.862;8.758;2023-01-30T08:35:00;99472.75;;;2.11;100.00
7157;BME280;3620;49.862;8.758;2023-01-30T08:37:27;99470.06;;;2.20;100.00
7157;BME280;3620;49.862;8.758;2023-01-30T08:39:54;99470.81;;;2.34;100.00
7157;BME280;3620;49.862;8.758;2023-01-30T08:42:20;99482.03;;;2.36;100.00
7157;BME280;3620;49.862;8.758;2023-01-30T08:44:48;99482.84;;;2.44;100.00
7157;BME280;3620;49.862;8.758;2023-01-30T08:47:15;99490.66;;;2.44;100.00
7157;BME280;3620;49.862;8.758;2023-01-30T08:49:41;99487.06;;;2.56;100.00
7157;BME280;3620;49.862;8.758;2023-01-30T08:52:08;99481.03;;;2.55;100.00
7157;BME280;3620;49.862;8.758;2023-01-30T08:54:35;99482.69;;;2.61;100.00
7157;BME280;3620;49.862;8.758;2023-01-30T08:57:02;99465.47;;;2.51;100.00
7157;BME280;3620;49.862;8.758;2023-01-30T08:59:28;99462.00;;;2.53;100.00
7157;BME280;3620;49.862;8.758;2023-01-30T09:01:56;99453.31;;;2.57;100.00
7157;BME280;3620;49.862;8.758;2023-01-30T09:04:22;99448.03;;;2.66;100.00
7157;BME280;3620;49.862;8.758;2023-01-30T09:06:50;99449.78;;;2.64;100.00
7157;BME280;3620;49.862;8.758;2023-01-30T09:09:17;99454.03;;;2.70;100.00
7157;BME280;3620;49.862;8.758;2023-01-30T09:11:43;99438.53;;;2.64;100.00
7157;BME280;3620;49.862;8.758;2023-01-30T09:14:12;99428.09;;;2.65;100.00
7157;BME280;3620;49.862;8.758;2023-01-30T09:16:38;99456.59;;;2.74;100.00
7157;BME280;3620;49.862;8.758;2023-01-30T09:19:06;99444.34;;;2.85;100.00
7157;BME280;3620;49.862;8.758;2023-01-30T09:21:33;99434.84;;;2.83;100.00
7157;BME280;3620;49.862;8.758;2023-01-30T09:23:59;99445.09;;;2.95;100.00
7157;BME280;3620;49.862;8.758;2023-01-30T09:26:26;99444.34;;;2.85;100.00
7157;BME280;3620;49.862;8.758;2023-01-30T09:28:52;99446.13;;;2.80;100.00
7157;BME280;3620;49.862;8.758;2023-01-30T09:31:19;99435.63;;;2.89;100.00
7157;BME280;3620;49.862;8.758;2023-01-30T09:33:45;99450.56;;;2.71;100.00
7157;BME280;3620;49.862;8.758;2023-01-30T09:36:13;99446.19;;;2.74;100.00
7157;BME280;3620;49.862;8.758;2023-01-30T09:38:40;99429.00;;;2.64;100.00
7157;BME280;3620;49.862;8.758;2023-01-30T09:41:35;99431.53;;;2.70;100.00
7157;BME280;3620;49.862;8.758;2023-01-30T09:44:25;99429.69;;;2.80;100.00
7157;BME280;3620;49.862;8.758;2023-01-30T09:47:02;99434.97;;;2.72;100.00
7157;BME280;3620;49.862;8.758;2023-01-30T09:49:41;99445.34;;;2.75;100.00
7157;BME280;3620;49.862;8.758;2023-01-30T09:52:24;99433.97;;;2.84;100.00
7157;BME280;3620;49.862;8.758;2023-01-30T09:54:54;99429.56;;;2.89;100.00
7157;BME280;3620;49.862;8.758;2023-01-30T09:57:23;99439.25;;;2.73;100.00
7157;BME280;3620;49.862;8.758;2023-01-30T09:59:55;99439.91;;;2.93;100.00
7157;BME280;3620;49.862;8.758;2023-01-30T10:02:34;99430.38;;;2.95;100.00
7157;BME280;3620;49.862;8.758;2023-01-30T10:05:03;99446.75;;;3.02;100.00
7157;BME280;3620;49.862;8.758;2023-01-30T10:07:40;99435.53;;;2.98;100.00
7157;BME280;3620;49.862;8.758;2023-01-30T10:10:16;99443.47;;;2.85;100.00
7157;BME280;3620;49.862;8.758;2023-01-30T10:12:53;99422.63;;;2.92;100.00
7157;BME280;3620;49.862;8.758;2023-01-30T10:15:37;99414.91;;;2.86;100.00
7157;BME280;3620;49.862;8.758;2023-01-30T10:18:27;99400.19;;;2.85;100.00
7157;BME280;3620;49.862;8.758;2023-01-30T10:21:08;99397.59;;;2.85;100.00
7157;BME280;3620;49.862;8.758;2023-01-30T10:26:42;99388.94;;;2.83;100.00
7157;BME280;3620;49.862;8.758;2023-01-30T10:29:13;99390.75;;;2.78;100.00
7157;BME280;3620;49.862;8.758;2023-01-30T10:31:45;99396.72;;;2.86;100.00
7157;BME280;3620;49.862;8.758;2023-01-30T10:34:17;99383.63;;;2.95;100.00
7157;BME280;3620;49.862;8.758;2023-01-30T10:36:50;99386.22;;;2.94;100.00
7157;BME280;3620;49.862;8.758;2023-01-30T10:39:25;99389.56;;;3.04;100.00
7157;BME280;3620;49.862;8.758;2023-01-30T10:41:57;99393.88;;;3.05;100.00
7157;BME280;3620;49.862;8.758;2023-01-30T10:44:25;99372.38;;;2.92;100.00
7157;BME280;3620;49.862;8.758;2023-01-30T10:50:01;99360.97;;;3.07;100.00
7157;BME280;3620;49.862;8.758;2023-01-30T10:52:40;99352.09;;;3.18;100.00
7157;BME280;3620;49.862;8.758;2023-01-30T10:55:25;99364.09;;;3.27;100.00
7157;BME280;3620;49.862;8.758;2023-01-30T10:57:59;99373.63;;;3.29;100.00
7157;BME280;3620;49.862;8.758;2023-01-30T11:00:29;99375.34;;;3.30;100.00
7157;BME280;3620;49.862;8.758;2023-01-30T11:03:14;99375.47;;;3.21;100.00
7157;BME280;3620;49.862;8.758;2023-01-30T11:05:45;99363.91;;;3.42;100.00
7157;BME280;3620;49.862;8.758;2023-01-30T11:08:19;99368.28;;;3.38;100.00
7157;BME280;3620;49.862;8.758;2023-01-30T11:10:47;99371.81;;;3.34;100.00
7157;BME280;3620;49.862;8.758;2023-01-30T11:13:17;99376.00;;;3.43;100.00
7157;BME280;3620;49.862;8.758;2023-01-30T11:15:45;99367.25;;;3.50;100.00
7157;BME280;3620;49.862;8.758;2023-01-30T11:18:13;99387.19;;;3.49;100.00
7157;BME280;3620;49.862;8.758;2023-01-30T11:20:43;99382.81;;;3.53;100.00
7157;BME280;3620;49.862;8.758;2023-01-30T11:23:23;99387.03;;;3.61;100.00
7157;BME280;3620;49.862;8.758;2023-01-30T11:25:53;99386.13;;;3.62;100.00
7157;BME280;3620;49.862;8.758;2023-01-30T11:28:21;99390.13;;;3.83;100.00
7157;BME280;3620;49.862;8.758;2023-01-30T11:30:52;99377.91;;;3.88;100.00
7157;BME280;3620;49.862;8.758;2023-01-30T11:33:20;99385.66;;;3.91;100.00
7157;BME280;3620;49.862;8.758;2023-01-30T11:35:54;99376.16;;;3.90;100.00
7157;BME280;3620;49.862;8.758;2023-01-30T11:38:23;99376.69;;;4.10;100.00
7157;BME280;3620;49.862;8.758;2023-01-30T11:41:01;99372.25;;;4.15;100.00
7157;BME280;3620;49.862;8.758;2023-01-30T11:43:28;99368.72;;;4.19;100.00
7157;BME280;3620;49.862;8.758;2023-01-30T11:45:55;99391.00;;;4.34;100.00
7157;BME280;3620;49.862;8.758;2023-01-30T11:48:25;99392.13;;;4.19;100.00
7157;BME280;3620;49.862;8.758;2023-01-30T11:50:56;99398.22;;;4.18;100.00
7157;BME280;3620;49.862;8.758;2023-01-30T11:53:29;99395.47;;;4.27;100.00
7157;BME280;3620;49.862;8.758;2023-01-30T11:56:04;99395.53;;;4.23;100.00
7157;BME280;3620;49.862;8.758;2023-01-30T11:58:32;99415.50;;;4.22;100.00
7157;BME280;3620;49.862;8.758;2023-01-30T12:01:01;99417.91;;;4.34;100.00
7157;BME280;3620;49.862;8.758;2023-01-30T12:03:28;99420.53;;;4.31;100.00
7157;BME280;3620;49.862;8.758;2023-01-30T12:05:56;99432.47;;;4.44;100.00
7157;BME280;3620;49.862;8.758;2023-01-30T12:08:26;99424.72;;;4.41;100.00
7157;BME280;3620;49.862;8.758;2023-01-30T12:10:55;99415.25;;;4.37;100.00
7157;BME280;3620;49.862;8.758;2023-01-30T12:13:30;99419.50;;;4.41;100.00
7157;BME280;3620;49.862;8.758;2023-01-30T12:16:05;99411.59;;;4.47;100.00
7157;BME280;3620;49.862;8.758;2023-01-30T12:18:38;99402.06;;;4.47;100.00
7157;BME280;3620;49.862;8.758;2023-01-30T12:21:24;99401.94;;;4.53;100.00
7157;BME280;3620;49.862;8.758;2023-01-30T12:23:56;99407.03;;;4.59;100.00
7157;BME280;3620;49.862;8.758;2023-01-30T12:26:27;99415.06;;;4.48;100.00
7157;BME280;3620;49.862;8.758;2023-01-30T12:29:01;99405.25;;;4.61;100.00
7157;BME280;3620;49.862;8.758;2023-01-30T12:31:35;99397.22;;;4.73;100.00
7157;BME280;3620;49.862;8.758;2023-01-30T12:34:04;99380.44;;;4.86;100.00
7157;BME280;3620;49.862;8.758;2023-01-30T12:36:39;99390.84;;;4.89;100.00
7157;BME280;3620;49.862;8.758;2023-01-30T12:39:13;99385.47;;;4.95;100.00
7157;BME280;3620;49.862;8.758;2023-01-30T12:41:59;99383.56;;;5.03;100.00
7157;BME280;3620;49.862;8.758;2023-01-30T12:44:42;99389.16;;;4.85;100.00
7157;BME280;3620;49.862;8.758;2023-01-30T12:47:22;99387.31;;;4.90;100.00
7157;BME280;3620;49.862;8.758;2023-01-30T12:50:05;99382.31;;;4.79;100.00
7157;BME280;3620;49.862;8.758;2023-01-30T12:52:44;99389.31;;;4.77;100.00
7157;BME280;3620;49.862;8.758;2023-01-30T12:55:25;99378.63;;;4.89;100.00
7157;BME280;3620;49.862;8.758;2023-01-30T12:57:58;99384.66;;;4.91;100.00
7157;BME280;3620;49.862;8.758;2023-01-30T13:00:39;99382.78;;;4.99;100.00
7157;BME280;3620;49.862;8.758;2023-01-30T13:03:27;99390.44;;;5.07;100.00
7157;BME280;3620;49.862;8.758;2023-01-30T13:06:05;99390.84;;;4.89;100.00
7157;BME280;3620;49.862;8.758;2023-01-30T13:08:54;99393.25;;;4.96;100.00
7157;BME280;3620;49.862;8.758;2023-01-30T13:11:40;99416.50;;;5.08;100.00
7157;BME280;3620;49.862;8.758;2023-01-30T13:14:16;99405.69;;;5.25;100.00
7157;BME280;3620;49.862;8.758;2023-01-30T13:16:58;99393.22;;;5.39;100.00
7157;BME280;3620;49.862;8.758;2023-01-30T13:19:30;99394.38;;;5.26;100.00
7157;BME280;3620;49.862;8.758;2023-01-30T13:22:04;99396.53;;;5.46;100.00
7157;BME280;3620;49.862;8.758;2023-01-30T13:24:44;99414.00;;;5.42;100.00
7157;BME280;3620;49.862;8.758;2023-01-30T13:27:16;99404.56;;;5.37;100.00
7157;BME280;3620;49.862;8.758;2023-01-30T13:29:45;99408.16;;;5.33;100.00
7157;BME280;3620;49.862;8.758;2023-01-30T13:32:22;99409.22;;;5.22;100.00
7157;BME280;3620;49.862;8.758;2023-01-30T13:34:52;99405.69;;;5.25;100.00
7157;BME280;3620;49.862;8.758;2023-01-30T13:37:21;99403.91;;;5.27;100.00
7157;BME280;3620;49.862;8.758;2023-01-30T13:39:50;99415.25;;;5.26;100.00
7157;BME280;3620;49.862;8.758;2023-01-30T13:42:32;99414.34;;;5.27;100.00
7157;BME280;3620;49.862;8.758;2023-01-30T13:45:03;99414.28;;;5.30;100.00